首页
METAR-TAF:

METAR-TAF

机场 :

傑克遜斯國際機場

莫尔兹比港, 巴布亞新幾內亞

纬度: 09-26S, 经度: 147-13E, 海拔: 38米

当前天气观测

该预报发布于57分钟前的20:00 UTC
风速3节,风向多变
温度 22°C
湿度 94%
气压 1014 hPa
能见度10公里或以上
多云层高于6000英尺
阴天层高于10000英尺

METAR: AYPY 222000Z VRB03KT 9999 BKN060 OVC100 22/21 Q1014

时间: 06:57 (20:57 UTC)

预报

该预报发布于4小时和56分钟前的16:01 UTC
预报有效从22日的 18点(UTC)到 23日的 18点(UTC)
风速节,风向
能见度10公里或以上
散云层高于4000英尺
从 22日的 2300点(UTC)
风速8节,风向
能见度10公里或以上
少量云层高于1800英尺
散云层高于4000英尺

TAF: AYPY 221601Z 2218/2318 00000KT 9999 SCT040 FM222300 17008KT 9999 FEW018 SCT040

超过4000个机场的气象观测和天气预报(METAR&TAF报告)。

可查询的气象台以黄色和红色小点在地图上表示。

将鼠标移到小点上方,可查看气象台名称。

然后点击查看天气观测和预报。

如需切换地图:点击带黑十字的绿色按钮放大地图;点击带横线的绿色按钮缩小地图;或者点击绿色箭头查看邻近地区的地图。


METAR-TAF: